createdAt,value
2017-05-12T00:01:04.706Z,999.14
2017-05-12T00:02:15.297Z,999.17
2017-05-12T00:03:25.582Z,999.18
2017-05-12T00:04:35.860Z,999.19
2017-05-12T00:05:46.151Z,999.15
2017-05-12T00:06:56.129Z,999.16
2017-05-12T00:08:06.351Z,999.14
2017-05-12T00:09:16.636Z,999.12
2017-05-12T00:10:26.909Z,999.13
2017-05-12T00:11:37.195Z,999.17
2017-05-12T00:12:47.511Z,999.12
2017-05-12T00:13:58.098Z,999.18
2017-05-12T00:15:08.065Z,999.17
2017-05-12T00:16:18.343Z,999.15
2017-05-12T00:17:28.625Z,999.14
2017-05-12T00:18:38.918Z,999.12
2017-05-12T00:19:49.202Z,999.16
2017-05-12T00:20:59.479Z,999.12
2017-05-12T00:22:09.756Z,999.12
2017-05-12T00:23:20.033Z,999.15
2017-05-12T00:24:31.727Z,999.16
2017-05-12T00:25:41.649Z,999.22
2017-05-12T00:26:51.932Z,999.15
2017-05-12T00:28:02.205Z,999.14
2017-05-12T00:29:12.487Z,999.14
2017-05-12T00:30:22.769Z,999.1
2017-05-12T00:31:32.992Z,999.12
2017-05-12T00:32:42.953Z,999.13
2017-05-12T00:33:52.930Z,999.16
2017-05-12T00:35:03.217Z,999.19
2017-05-12T00:36:13.502Z,999.18
2017-05-12T00:37:24.035Z,999.18
2017-05-12T00:38:34.309Z,999.16
2017-05-12T00:39:44.277Z,999.16
2017-05-12T00:40:54.259Z,999.11
2017-05-12T00:42:04.555Z,999.16
2017-05-12T00:43:14.541Z,999.19
2017-05-12T00:44:24.818Z,999.17
2017-05-12T00:45:34.790Z,999.16
2017-05-12T00:46:44.762Z,999.15
2017-05-12T00:47:55.046Z,999.12
2017-05-12T00:49:05.582Z,999.14
2017-05-12T00:50:15.550Z,999.13
2017-05-12T00:51:25.827Z,999.13
2017-05-12T00:52:35.491Z,999.17
2017-05-12T00:53:45.784Z,999.13
2017-05-12T00:54:56.051Z,999.12
2017-05-12T00:56:06.036Z,999.17
2017-05-12T00:57:16.003Z,999.21
2017-05-12T00:58:26.293Z,999.17
2017-05-12T00:59:36.582Z,999.17
2017-05-12T01:00:46.817Z,999.21
2017-05-12T01:01:57.110Z,999.16
2017-05-12T01:03:07.079Z,999.13
2017-05-12T01:04:17.203Z,999.18
2017-05-12T01:05:27.480Z,999.22
2017-05-12T01:06:38.082Z,999.17
2017-05-12T01:07:48.057Z,999.17
2017-05-12T01:08:58.347Z,999.17
2017-05-12T01:10:08.328Z,999.17
2017-05-12T01:11:18.855Z,999.14
2017-05-12T01:12:29.383Z,999.15
2017-05-12T01:13:39.679Z,999.17
2017-05-12T01:14:50.004Z,999.15
2017-05-12T01:16:00.275Z,999.14
2017-05-12T01:17:10.565Z,999.11
2017-05-12T01:18:20.478Z,999.14
2017-05-12T01:19:30.765Z,999.1
2017-05-12T01:20:41.062Z,999.14
2017-05-12T01:21:51.349Z,999.08
2017-05-12T01:23:01.647Z,999.11
2017-05-12T01:24:12.177Z,999.14
2017-05-12T01:25:22.465Z,999.12
2017-05-12T01:26:32.742Z,999.16
2017-05-12T01:27:43.066Z,999.21
2017-05-12T01:28:53.045Z,999.21
2017-05-12T01:30:03.271Z,999.18
2017-05-12T01:31:13.244Z,999.2
2017-05-12T01:32:23.219Z,999.18
2017-05-12T01:33:33.192Z,999.19
2017-05-12T01:34:43.475Z,999.19
2017-05-12T01:35:54.067Z,999.16
2017-05-12T01:37:04.049Z,999.18
2017-05-12T01:38:14.331Z,999.13
2017-05-12T01:39:24.299Z,999.1
2017-05-12T01:40:34.580Z,999.1
2017-05-12T01:41:45.113Z,999.14
2017-05-12T01:42:55.399Z,999.14
2017-05-12T01:44:05.732Z,999.16
2017-05-12T01:45:15.708Z,999.14
2017-05-12T01:46:25.364Z,999.13
2017-05-12T01:47:35.641Z,999.1
2017-05-12T01:48:45.948Z,999.06
2017-05-12T01:49:56.229Z,999.06
2017-05-12T01:51:06.508Z,999.05
2017-05-12T01:52:16.472Z,999.05
2017-05-12T01:53:27.013Z,999.09
2017-05-12T01:54:37.291Z,999.1
2017-05-12T01:55:47.568Z,999.06
2017-05-12T01:56:57.856Z,999.05
2017-05-12T01:58:07.823Z,999.04
2017-05-12T01:59:18.407Z,999.05
2017-05-12T02:00:28.684Z,999.03
2017-05-12T02:01:38.967Z,999.05
2017-05-12T02:02:48.934Z,999.07
2017-05-12T02:03:59.233Z,999.09
2017-05-12T02:05:09.812Z,999.08
2017-05-12T02:06:20.095Z,999.12
2017-05-12T02:07:30.375Z,999.07
2017-05-12T02:08:40.658Z,999.1
2017-05-12T02:09:50.937Z,999.11
2017-05-12T02:11:01.154Z,999.11
2017-05-12T02:12:11.126Z,999.11
2017-05-12T02:13:21.095Z,999.08
2017-05-12T02:14:31.380Z,999.06
2017-05-12T02:15:41.659Z,999.09
2017-05-12T02:16:52.253Z,999.04
2017-05-12T02:18:02.221Z,999.02
2017-05-12T02:19:12.495Z,999.05
2017-05-12T02:20:22.471Z,999.04
2017-05-12T02:21:32.436Z,999.01
2017-05-12T02:22:42.972Z,999.01
2017-05-12T02:23:53.277Z,998.98
2017-05-12T02:25:03.562Z,998.97
2017-05-12T02:26:13.850Z,999
2017-05-12T02:27:23.819Z,998.95
2017-05-12T02:28:34.393Z,998.95
2017-05-12T02:29:44.677Z,998.93
2017-05-12T02:30:54.655Z,998.89
2017-05-12T02:32:04.932Z,998.87
2017-05-12T02:33:15.209Z,998.86
2017-05-12T02:34:25.739Z,998.9
2017-05-12T02:35:36.063Z,998.87
2017-05-12T02:36:46.340Z,998.83
2017-05-12T02:37:56.620Z,998.85
2017-05-12T02:39:06.595Z,998.86
2017-05-12T02:40:17.133Z,998.86
2017-05-12T02:41:27.657Z,998.8
2017-05-12T02:42:37.987Z,998.83
2017-05-12T02:43:47.958Z,998.8
2017-05-12T02:44:58.237Z,998.82
2017-05-12T02:46:08.819Z,998.81
2017-05-12T02:47:19.089Z,998.77
2017-05-12T02:48:29.366Z,998.8
2017-05-12T02:49:39.335Z,998.75
2017-05-12T02:50:49.624Z,998.74
2017-05-12T02:52:00.703Z,998.78
2017-05-12T02:53:10.992Z,998.83
2017-05-12T02:54:20.966Z,998.83
2017-05-12T02:55:30.631Z,998.84
2017-05-12T02:56:40.657Z,998.83
2017-05-12T02:57:50.921Z,998.83
2017-05-12T02:59:01.199Z,998.88
2017-05-12T03:00:11.484Z,998.88
2017-05-12T03:01:21.764Z,998.87
2017-05-12T03:02:32.050Z,998.89
2017-05-12T03:03:42.319Z,998.86
2017-05-12T03:04:52.610Z,998.85
2017-05-12T03:06:02.898Z,998.84
2017-05-12T03:07:13.183Z,998.8
2017-05-12T03:08:23.468Z,998.84
2017-05-12T03:09:34.051Z,998.78
2017-05-12T03:10:44.328Z,998.8
2017-05-12T03:11:54.629Z,998.79
2017-05-12T03:13:04.912Z,998.8
2017-05-12T03:14:14.869Z,998.83
2017-05-12T03:15:25.187Z,998.85
2017-05-12T03:16:35.509Z,998.83
2017-05-12T03:17:45.792Z,998.86
2017-05-12T03:18:55.759Z,998.87
2017-05-12T03:20:05.738Z,998.85
2017-05-12T03:21:16.280Z,998.87
2017-05-12T03:22:26.249Z,998.86
2017-05-12T03:23:36.528Z,998.86
2017-05-12T03:24:46.508Z,998.84
2017-05-12T03:25:56.489Z,998.86
2017-05-12T03:27:07.063Z,998.87
2017-05-12T03:28:17.346Z,998.88
2017-05-12T03:29:27.628Z,998.91
2017-05-12T03:30:37.924Z,998.97
2017-05-12T03:31:48.204Z,998.92
2017-05-12T03:32:58.796Z,998.95
2017-05-12T03:34:09.088Z,998.97
2017-05-12T03:35:19.371Z,999.01
2017-05-12T03:36:29.356Z,998.99
2017-05-12T03:37:39.636Z,999.01
2017-05-12T03:38:50.221Z,998.99
2017-05-12T03:40:00.187Z,999.06
2017-05-12T03:41:10.162Z,999.06
2017-05-12T03:42:20.444Z,999.07
2017-05-12T03:43:30.726Z,999.09
2017-05-12T03:44:41.299Z,999.07
2017-05-12T03:45:51.578Z,999.13
2017-05-12T03:47:01.539Z,999.12
2017-05-12T03:48:11.814Z,999.12
2017-05-12T03:49:22.094Z,999.11
2017-05-12T03:50:32.681Z,999.11
2017-05-12T03:51:42.646Z,999.12
2017-05-12T03:52:52.608Z,999.14
2017-05-12T03:54:02.881Z,999.12
2017-05-12T03:55:13.163Z,999.15
2017-05-12T03:56:23.698Z,999.18
2017-05-12T03:57:33.991Z,999.18
2017-05-12T03:58:44.266Z,999.16
2017-05-12T03:59:54.243Z,999.14
2017-05-12T04:01:04.222Z,999.2
2017-05-12T04:02:14.130Z,999.23
2017-05-12T04:03:24.095Z,999.22
2017-05-12T04:04:34.382Z,999.22
2017-05-12T04:05:44.657Z,999.28
2017-05-12T04:06:54.928Z,999.29
2017-05-12T04:08:05.462Z,999.26
2017-05-12T04:09:15.740Z,999.25
2017-05-12T04:10:26.026Z,999.3
2017-05-12T04:11:36.307Z,999.29
2017-05-12T04:12:46.583Z,999.26
2017-05-12T04:13:56.815Z,999.32
2017-05-12T04:15:07.291Z,999.32
2017-05-12T04:16:17.560Z,999.37
2017-05-12T04:17:27.847Z,999.37
2017-05-12T04:18:38.118Z,999.34
2017-05-12T04:19:48.706Z,999.34
2017-05-12T04:20:58.980Z,999.35
2017-05-12T04:22:09.270Z,999.33
2017-05-12T04:23:19.242Z,999.36
2017-05-12T04:24:29.631Z,999.41
2017-05-12T04:25:40.168Z,999.42
2017-05-12T04:26:50.450Z,999.41
2017-05-12T04:28:00.420Z,999.39
2017-05-12T04:29:10.386Z,999.36
2017-05-12T04:30:20.696Z,999.39
2017-05-12T04:31:31.231Z,999.42
2017-05-12T04:32:41.199Z,999.42
2017-05-12T04:33:51.480Z,999.46
2017-05-12T04:35:01.450Z,999.44
2017-05-12T04:36:11.762Z,999.46
2017-05-12T04:37:22.351Z,999.51
2017-05-12T04:38:32.323Z,999.46
2017-05-12T04:39:41.983Z,999.45
2017-05-12T04:40:52.283Z,999.49
2017-05-12T04:42:02.574Z,999.47
2017-05-12T04:43:13.149Z,999.48
2017-05-12T04:44:23.128Z,999.47
2017-05-12T04:45:33.405Z,999.44
2017-05-12T04:46:43.389Z,999.43
2017-05-12T04:47:53.699Z,999.49
2017-05-12T04:49:04.302Z,999.49
2017-05-12T04:50:14.585Z,999.48
2017-05-12T04:51:24.864Z,999.51
2017-05-12T04:52:35.152Z,999.49
2017-05-12T04:53:45.468Z,999.5
2017-05-12T04:54:55.760Z,999.58
2017-05-12T04:56:06.034Z,999.55
2017-05-12T04:57:16.332Z,999.54
2017-05-12T04:58:26.317Z,999.52
2017-05-12T04:59:36.603Z,999.48
2017-05-12T05:00:46.828Z,999.51
2017-05-12T05:01:57.107Z,999.5
2017-05-12T05:03:07.087Z,999.52
2017-05-12T05:04:17.368Z,999.53
2017-05-12T05:05:27.667Z,999.53
2017-05-12T05:06:38.253Z,999.56
2017-05-12T05:07:48.541Z,999.55
2017-05-12T05:08:58.499Z,999.54
2017-05-12T05:10:08.477Z,999.52
2017-05-12T05:11:18.754Z,999.51
2017-05-12T05:12:29.024Z,999.54
2017-05-12T05:13:39.367Z,999.53
2017-05-12T05:14:49.659Z,999.52
2017-05-12T05:15:59.952Z,999.52
2017-05-12T05:17:09.928Z,999.51
2017-05-12T05:18:19.887Z,999.58
2017-05-12T05:19:30.164Z,999.66
2017-05-12T05:20:40.456Z,999.6
2017-05-12T05:21:50.781Z,999.58
2017-05-12T05:23:01.072Z,999.57
2017-05-12T05:24:11.668Z,999.64
2017-05-12T05:25:21.957Z,999.63
2017-05-12T05:26:32.235Z,999.7
2017-05-12T05:27:42.212Z,999.61
2017-05-12T05:28:52.183Z,999.67
2017-05-12T05:30:02.420Z,999.7
2017-05-12T05:31:12.724Z,999.65
2017-05-12T05:32:23.020Z,999.66
2017-05-12T05:33:33.314Z,999.71
2017-05-12T05:34:43.602Z,999.7
2017-05-12T05:35:54.138Z,999.76
2017-05-12T05:37:04.463Z,999.77
2017-05-12T05:38:14.754Z,999.78
2017-05-12T05:39:24.727Z,999.78
2017-05-12T05:40:34.392Z,999.76
2017-05-12T05:41:44.614Z,999.76
2017-05-12T05:42:54.901Z,999.74
2017-05-12T05:44:05.218Z,999.64
2017-05-12T05:45:15.512Z,999.7
2017-05-12T05:46:25.806Z,999.69
2017-05-12T05:47:35.765Z,999.74
2017-05-12T05:48:46.056Z,999.71
2017-05-12T05:49:56.354Z,999.72
2017-05-12T05:51:06.650Z,999.7
2017-05-12T05:52:17.164Z,999.67
2017-05-12T05:53:27.749Z,999.7
2017-05-12T05:54:38.039Z,999.72
2017-05-12T05:55:48.329Z,999.67
2017-05-12T05:56:58.680Z,999.71
2017-05-12T05:58:08.658Z,999.69
2017-05-12T05:59:19.197Z,999.68
2017-05-12T06:00:29.478Z,999.69
2017-05-12T06:01:39.780Z,999.71
2017-05-12T06:02:50.071Z,999.67
2017-05-12T06:04:00.354Z,999.75
2017-05-12T06:05:10.949Z,999.71
2017-05-12T06:06:20.936Z,999.69
2017-05-12T06:07:31.268Z,999.71
2017-05-12T06:08:41.600Z,999.71
2017-05-12T06:09:51.587Z,999.74
2017-05-12T06:11:02.174Z,999.76
2017-05-12T06:12:12.148Z,999.75
2017-05-12T06:13:22.447Z,999.79
2017-05-12T06:14:32.729Z,999.75
2017-05-12T06:15:43.022Z,999.79
2017-05-12T06:16:53.335Z,999.79
2017-05-12T06:18:03.314Z,999.82
2017-05-12T06:19:13.593Z,999.84
2017-05-12T06:20:23.589Z,999.84
2017-05-12T06:21:33.562Z,999.85
2017-05-12T06:22:44.107Z,999.87
2017-05-12T06:23:54.427Z,999.84
2017-05-12T06:25:04.399Z,999.84
2017-05-12T06:26:14.682Z,999.86
2017-05-12T06:27:24.658Z,999.88
2017-05-12T06:28:34.929Z,999.85
2017-05-12T06:29:44.593Z,999.9
2017-05-12T06:30:54.884Z,999.8
2017-05-12T06:32:05.168Z,999.85
2017-05-12T06:33:15.158Z,999.85
2017-05-12T06:34:25.693Z,999.84
2017-05-12T06:35:35.980Z,999.87
2017-05-12T06:36:46.280Z,999.85
2017-05-12T06:37:56.584Z,999.87
2017-05-12T06:39:06.875Z,999.93
2017-05-12T06:40:17.421Z,999.94
2017-05-12T06:41:27.403Z,999.95
2017-05-12T06:42:37.379Z,999.92
2017-05-12T06:43:47.358Z,999.91
2017-05-12T06:44:57.652Z,999.92
2017-05-12T06:46:08.241Z,999.95
2017-05-12T06:47:18.538Z,999.92
2017-05-12T06:48:28.218Z,999.91
2017-05-12T06:49:38.507Z,999.94
2017-05-12T06:50:48.496Z,999.93
2017-05-12T06:51:59.095Z,999.96
2017-05-12T06:53:09.391Z,999.97
2017-05-12T06:54:19.692Z,999.98
2017-05-12T06:55:29.988Z,999.98
2017-05-12T06:56:40.282Z,1000.01
2017-05-12T06:57:50.835Z,999.98
2017-05-12T06:59:01.129Z,999.97
2017-05-12T07:00:11.436Z,999.96
2017-05-12T07:01:21.734Z,999.95
2017-05-12T07:02:32.123Z,1000.05
2017-05-12T07:03:42.365Z,1000.02
2017-05-12T07:04:52.659Z,999.99
2017-05-12T07:06:02.644Z,1000.01
2017-05-12T07:07:12.616Z,1000.06
2017-05-12T07:08:22.919Z,1000.04
2017-05-12T07:09:33.459Z,1000.08
2017-05-12T07:10:43.756Z,1000.13
2017-05-12T07:11:53.423Z,1000.08
2017-05-12T07:13:03.713Z,1000.08
2017-05-12T07:14:14.031Z,1000.09
2017-05-12T07:15:24.589Z,1000.1
2017-05-12T07:16:34.874Z,1000.11
2017-05-12T07:17:44.844Z,1000.13
2017-05-12T07:18:54.827Z,1000.15
2017-05-12T07:20:04.821Z,1000.17
2017-05-12T07:21:15.386Z,1000.15
2017-05-12T07:22:25.706Z,1000.17
2017-05-12T07:23:35.991Z,1000.14
2017-05-12T07:24:45.977Z,1000.17
2017-05-12T07:25:55.646Z,1000.22
2017-05-12T07:27:05.880Z,1000.2
2017-05-12T07:28:16.172Z,1000.13
2017-05-12T07:29:26.464Z,1000.12
2017-05-12T07:30:36.441Z,1000.19
2017-05-12T07:31:46.427Z,1000.1
2017-05-12T07:32:56.670Z,1000.15
2017-05-12T07:34:07.007Z,1000.13
2017-05-12T07:35:16.674Z,1000.18
2017-05-12T07:36:26.964Z,1000.23
2017-05-12T07:37:37.298Z,1000.18
2017-05-12T07:38:47.849Z,1000.19
2017-05-12T07:39:57.831Z,1000.21
2017-05-12T07:41:08.119Z,1000.21
2017-05-12T07:42:18.666Z,1000.26
2017-05-12T07:43:28.962Z,1000.24
2017-05-12T07:44:39.199Z,1000.26
2017-05-12T07:45:49.179Z,1000.26
2017-05-12T07:46:58.900Z,1000.29
2017-05-12T07:48:09.203Z,1000.31
2017-05-12T07:49:19.174Z,1000.28
2017-05-12T07:50:29.727Z,1000.3
2017-05-12T07:51:39.723Z,1000.3
2017-05-12T07:52:50.027Z,1000.26
2017-05-12T07:54:00.031Z,1000.25
2017-05-12T07:55:10.015Z,1000.27
2017-05-12T07:56:20.552Z,1000.2
2017-05-12T07:57:30.544Z,1000.2
2017-05-12T07:58:40.834Z,1000.23
2017-05-12T07:59:50.514Z,1000.24
2017-05-12T08:01:00.843Z,1000.23
2017-05-12T08:02:11.541Z,1000.2
2017-05-12T08:03:21.525Z,1000.26
2017-05-12T08:04:31.514Z,1000.3
2017-05-12T08:05:41.819Z,1000.21
2017-05-12T08:06:51.833Z,1000.19
2017-05-12T08:08:02.075Z,1000.2
2017-05-12T08:09:12.379Z,1000.22
2017-05-12T08:10:22.671Z,1000.21
2017-05-12T08:11:32.976Z,1000.19
2017-05-12T08:12:42.960Z,1000.21
2017-05-12T08:13:53.499Z,1000.24
2017-05-12T08:15:03.478Z,1000.23
2017-05-12T08:16:13.821Z,1000.24
2017-05-12T08:17:24.112Z,1000.23
2017-05-12T08:18:33.796Z,1000.18
2017-05-12T08:19:44.061Z,1000.22
2017-05-12T08:20:54.364Z,1000.23
2017-05-12T08:22:04.659Z,1000.24
2017-05-12T08:23:14.941Z,1000.22
2017-05-12T08:24:24.923Z,1000.22
2017-05-12T08:25:34.853Z,1000.2
2017-05-12T08:26:44.872Z,1000.19
2017-05-12T08:27:55.209Z,1000.21
2017-05-12T08:29:04.567Z,1000.19
2017-05-12T08:30:14.915Z,1000.16
2017-05-12T08:31:25.144Z,1000.18
2017-05-12T08:32:35.446Z,1000.2
2017-05-12T08:33:45.424Z,1000.16
2017-05-12T08:34:55.404Z,1000.14
2017-05-12T08:36:05.397Z,1000.19
2017-05-12T08:37:15.963Z,1000.15
2017-05-12T08:38:25.941Z,1000.15
2017-05-12T08:39:36.235Z,1000.15
2017-05-12T08:40:46.525Z,1000.16
2017-05-12T08:41:56.504Z,1000.17
2017-05-12T08:43:06.730Z,1000.14
2017-05-12T08:44:17.027Z,1000.14
2017-05-12T08:45:27.328Z,1000.13
2017-05-12T08:46:37.622Z,1000.13
2017-05-12T08:47:47.906Z,1000.1
2017-05-12T08:48:58.474Z,1000.12
2017-05-12T08:50:08.465Z,1000.12
2017-05-12T08:51:18.462Z,1000.13
2017-05-12T08:52:28.441Z,1000.1
2017-05-12T08:53:38.727Z,1000.11
2017-05-12T08:54:49.021Z,1000.09
2017-05-12T08:55:59.310Z,1000.11
2017-05-12T08:57:09.298Z,1000.07
2017-05-12T08:58:19.597Z,1000.07
2017-05-12T08:59:29.902Z,1000.03
2017-05-12T09:00:40.460Z,1000.04
2017-05-12T09:01:50.753Z,1000.07
2017-05-12T09:03:00.736Z,999.98
2017-05-12T09:04:11.034Z,1000
2017-05-12T09:05:21.330Z,1000.04
2017-05-12T09:06:31.876Z,1000.04
2017-05-12T09:07:42.170Z,1000.01
2017-05-12T09:08:52.460Z,1000.01
2017-05-12T09:10:02.757Z,999.96
2017-05-12T09:11:12.736Z,1000
2017-05-12T09:12:23.296Z,1000
2017-05-12T09:13:33.593Z,1000.03
2017-05-12T09:14:43.573Z,999.97
2017-05-12T09:15:53.568Z,999.99
2017-05-12T09:17:03.860Z,1000.01
2017-05-12T09:18:13.776Z,999.99
2017-05-12T09:19:24.079Z,999.99
2017-05-12T09:20:34.370Z,999.99
2017-05-12T09:21:44.662Z,999.98
2017-05-12T09:22:54.949Z,999.99
2017-05-12T09:24:04.883Z,999.95
2017-05-12T09:25:15.190Z,999.97
2017-05-12T09:26:25.194Z,999.95
2017-05-12T09:27:35.258Z,999.97
2017-05-12T09:28:45.609Z,1000
2017-05-12T09:29:55.901Z,1000
2017-05-12T09:31:06.209Z,1000.03
2017-05-12T09:32:16.222Z,999.93
2017-05-12T09:33:26.556Z,1000.01
2017-05-12T09:34:36.867Z,999.98
2017-05-12T09:35:47.121Z,1000
2017-05-12T09:36:57.419Z,999.98
2017-05-12T09:38:07.730Z,999.98
2017-05-12T09:39:18.025Z,999.98
2017-05-12T09:40:28.407Z,1000.01
2017-05-12T09:41:38.940Z,1000
2017-05-12T09:42:49.245Z,1000.04
2017-05-12T09:43:59.535Z,1000.04
2017-05-12T09:45:09.839Z,1000
2017-05-12T09:46:20.129Z,1000
2017-05-12T09:47:30.689Z,1000
2017-05-12T09:48:40.972Z,1000
2017-05-12T09:49:51.269Z,999.99
2017-05-12T09:51:01.569Z,999.99
2017-05-12T09:52:11.855Z,999.99
2017-05-12T09:53:25.993Z,999.94
2017-05-12T09:54:36.283Z,999.96
2017-05-12T09:55:45.975Z,999.96
2017-05-12T09:56:56.264Z,999.95
2017-05-12T09:58:06.553Z,999.94
2017-05-12T09:59:17.095Z,999.95
2017-05-12T10:00:27.393Z,999.95
2017-05-12T10:01:37.721Z,999.97
2017-05-12T10:02:48.020Z,999.96
2017-05-12T10:03:58.308Z,1000
2017-05-12T10:05:08.875Z,999.97
2017-05-12T10:06:19.177Z,1000
2017-05-12T10:07:29.466Z,1000
2017-05-12T10:08:39.905Z,999.99
2017-05-12T10:09:50.193Z,1000.01
2017-05-12T10:11:00.433Z,1000.11
2017-05-12T10:12:10.742Z,1000.04
2017-05-12T10:13:20.424Z,999.97
2017-05-12T10:14:30.761Z,999.99
2017-05-12T10:15:41.112Z,1000.03
2017-05-12T10:16:51.662Z,1000.02
2017-05-12T10:18:01.955Z,999.93
2017-05-12T10:19:12.273Z,1000.06
2017-05-12T10:20:22.276Z,999.97
2017-05-12T10:21:32.287Z,1000.01
2017-05-12T10:22:42.842Z,999.89
2017-05-12T10:23:52.818Z,999.92
2017-05-12T10:25:03.112Z,999.91
2017-05-12T10:26:13.409Z,999.94
2017-05-12T10:27:23.711Z,999.97
2017-05-12T10:28:34.314Z,999.9
2017-05-12T10:29:44.318Z,999.88
2017-05-12T10:30:54.660Z,999.94
2017-05-12T10:32:05.202Z,999.97
2017-05-12T10:33:15.418Z,999.9
2017-05-12T10:34:25.687Z,999.93
2017-05-12T10:35:36.000Z,999.87
2017-05-12T10:36:46.018Z,999.84
2017-05-12T10:37:56.326Z,999.84
2017-05-12T10:39:06.007Z,999.83
2017-05-12T10:40:16.333Z,999.89
2017-05-12T10:41:26.629Z,999.85
2017-05-12T10:42:37.020Z,999.83
2017-05-12T10:43:47.101Z,999.77
2017-05-12T10:44:57.173Z,999.76
2017-05-12T10:46:07.442Z,999.77
2017-05-12T10:47:17.751Z,999.72
2017-05-12T10:48:28.162Z,999.79
2017-05-12T10:49:38.504Z,999.77
2017-05-12T10:50:48.521Z,999.81
2017-05-12T10:51:58.755Z,999.69
2017-05-12T10:53:09.074Z,999.69
2017-05-12T10:54:19.423Z,999.68
2017-05-12T10:55:29.408Z,999.71
2017-05-12T10:56:39.751Z,999.69
2017-05-12T10:57:50.296Z,999.66
2017-05-12T10:59:00.586Z,999.69
2017-05-12T11:00:10.891Z,999.65
2017-05-12T11:01:21.190Z,999.67
2017-05-12T11:02:31.190Z,999.64
2017-05-12T11:03:41.742Z,999.67
2017-05-12T11:04:52.038Z,999.67
2017-05-12T11:06:02.334Z,999.69
2017-05-12T11:07:12.659Z,999.72
2017-05-12T11:08:22.661Z,999.67
2017-05-12T11:09:32.903Z,999.69
2017-05-12T11:10:43.192Z,999.68
2017-05-12T11:11:53.535Z,999.7
2017-05-12T11:13:03.844Z,999.7
2017-05-12T11:14:13.833Z,999.68
2017-05-12T11:15:24.377Z,999.67
2017-05-12T11:16:34.365Z,999.68
2017-05-12T11:17:44.347Z,999.65
2017-05-12T11:18:54.319Z,999.65
2017-05-12T11:20:04.307Z,999.65
2017-05-12T11:21:14.857Z,999.6
2017-05-12T11:22:24.859Z,999.63
2017-05-12T11:23:35.166Z,999.63
2017-05-12T11:24:45.470Z,999.64
2017-05-12T11:25:55.447Z,999.68
2017-05-12T11:27:05.991Z,999.67
2017-05-12T11:28:15.352Z,999.6
2017-05-12T11:29:25.642Z,999.57
2017-05-12T11:30:35.635Z,999.56
2017-05-12T11:31:45.943Z,999.58
2017-05-12T11:32:56.502Z,999.62
2017-05-12T11:34:06.529Z,999.58
2017-05-12T11:35:16.830Z,999.61
2017-05-12T11:36:27.126Z,999.54
2017-05-12T11:37:37.343Z,999.56
2017-05-12T11:38:47.901Z,999.55
2017-05-12T11:39:58.208Z,999.62
2017-05-12T11:41:08.508Z,999.57
2017-05-12T11:42:17.863Z,999.57
2017-05-12T11:43:28.163Z,999.61
2017-05-12T11:44:38.396Z,999.58
2017-05-12T11:45:48.692Z,999.56
2017-05-12T11:46:59.036Z,999.5
2017-05-12T11:48:09.037Z,999.54
2017-05-12T11:49:19.346Z,999.55
2017-05-12T11:50:29.902Z,999.51
2017-05-12T11:51:40.205Z,999.49
2017-05-12T11:52:50.193Z,999.56
2017-05-12T11:54:00.480Z,999.5
2017-05-12T11:55:10.830Z,999.53
2017-05-12T11:56:21.426Z,999.51
2017-05-12T11:57:31.736Z,999.5
2017-05-12T11:58:42.061Z,999.52
2017-05-12T11:59:52.045Z,999.6
2017-05-12T12:01:02.346Z,999.56
2017-05-12T12:02:12.595Z,999.56
2017-05-12T12:03:22.909Z,999.53
2017-05-12T12:04:32.908Z,999.56
2017-05-12T12:05:43.199Z,999.52
2017-05-12T12:06:53.530Z,999.56
2017-05-12T12:08:03.790Z,999.5
2017-05-12T12:09:14.092Z,999.48
2017-05-12T12:10:24.397Z,999.58
2017-05-12T12:11:34.398Z,999.54
2017-05-12T12:12:44.369Z,999.53
2017-05-12T12:13:54.598Z,999.49
2017-05-12T12:15:04.884Z,999.46
2017-05-12T12:16:14.885Z,999.43
2017-05-12T12:17:25.182Z,999.41
2017-05-12T12:18:35.490Z,999.39
2017-05-12T12:19:46.027Z,999.43
2017-05-12T12:20:56.320Z,999.49
2017-05-12T12:22:06.331Z,999.47
2017-05-12T12:23:16.315Z,999.44
2017-05-12T12:24:26.309Z,999.49
2017-05-12T12:25:36.885Z,999.44
2017-05-12T12:26:47.235Z,999.45
2017-05-12T12:27:57.535Z,999.49
2017-05-12T12:29:07.817Z,999.45
2017-05-12T12:30:17.801Z,999.44
2017-05-12T12:31:28.350Z,999.43
2017-05-12T12:32:38.660Z,999.42
2017-05-12T12:33:48.334Z,999.52
2017-05-12T12:34:58.653Z,999.47
2017-05-12T12:36:08.984Z,999.49
2017-05-12T12:37:19.562Z,999.4
2017-05-12T12:38:29.559Z,999.42
2017-05-12T12:39:39.886Z,999.43
2017-05-12T12:40:50.179Z,999.4
2017-05-12T12:42:00.163Z,999.54
2017-05-12T12:43:10.714Z,999.45
2017-05-12T12:44:21.019Z,999.44
2017-05-12T12:45:31.364Z,999.48
2017-05-12T12:46:41.686Z,999.54
2017-05-12T12:47:52.029Z,999.5
2017-05-12T12:49:02.315Z,999.52
2017-05-12T12:50:12.603Z,999.45
2017-05-12T12:51:22.898Z,999.41
2017-05-12T12:52:32.879Z,999.46
2017-05-12T12:53:43.169Z,999.46
2017-05-12T12:54:53.398Z,999.42
2017-05-12T12:56:03.374Z,999.45
2017-05-12T12:57:13.667Z,999.42
2017-05-12T12:58:23.646Z,999.39
2017-05-12T12:59:33.951Z,999.35
2017-05-12T13:00:44.197Z,999.35
2017-05-12T13:01:54.177Z,999.42
2017-05-12T13:03:04.463Z,999.4
2017-05-12T13:04:14.756Z,999.39
2017-05-12T13:05:25.055Z,999.3
2017-05-12T13:06:35.596Z,999.35
2017-05-12T13:07:45.898Z,999.35
2017-05-12T13:08:55.875Z,999.37
2017-05-12T13:10:06.168Z,999.37
2017-05-12T13:11:16.463Z,999.34
2017-05-12T13:12:26.697Z,999.3
2017-05-12T13:13:36.676Z,999.34
2017-05-12T13:14:46.962Z,999.53
2017-05-12T13:15:57.495Z,999.34
2017-05-12T13:17:07.803Z,999.57
2017-05-12T13:18:18.350Z,999.28
2017-05-12T13:19:28.646Z,999.3
2017-05-12T13:20:38.979Z,999.26
2017-05-12T13:21:49.280Z,999.29
2017-05-12T13:22:59.567Z,999.25
2017-05-12T13:24:10.109Z,999.34
2017-05-12T13:25:20.395Z,999.32
2017-05-12T13:26:30.390Z,999.31
2017-05-12T13:27:40.681Z,999.35
2017-05-12T13:28:50.973Z,999.29
2017-05-12T13:30:00.884Z,999.19
2017-05-12T13:31:11.189Z,999.21
2017-05-12T13:32:21.486Z,999.2
2017-05-12T13:33:31.765Z,999.18
2017-05-12T13:34:42.084Z,999.15
2017-05-12T13:35:52.619Z,999.26
2017-05-12T13:37:02.912Z,999.22
2017-05-12T13:38:13.208Z,999.21
2017-05-12T13:39:23.495Z,999.21
2017-05-12T13:40:33.800Z,999.34
2017-05-12T13:41:44.031Z,999.14
2017-05-12T13:42:54.315Z,999.1
2017-05-12T13:44:04.301Z,999.13
2017-05-12T13:45:14.592Z,999.13
2017-05-12T13:46:24.915Z,999.05
2017-05-12T13:47:35.161Z,999.05
2017-05-12T13:48:45.456Z,999.06
2017-05-12T13:49:55.743Z,999.09
2017-05-12T13:51:05.722Z,999.04
2017-05-12T13:52:16.028Z,999.05
2017-05-12T13:53:26.580Z,999.11
2017-05-12T13:54:36.552Z,999.07
2017-05-12T13:55:46.849Z,999.04
2017-05-12T13:56:56.822Z,999.03
2017-05-12T13:58:06.496Z,999.02
2017-05-12T13:59:16.727Z,999.01
2017-05-12T14:00:27.023Z,999.04
2017-05-12T14:01:36.996Z,999.01
2017-05-12T14:02:47.296Z,998.99
2017-05-12T14:03:57.276Z,998.97
2017-05-12T14:05:07.569Z,998.99
2017-05-12T14:06:17.858Z,998.88
2017-05-12T14:07:27.844Z,998.93
2017-05-12T14:08:38.144Z,998.92
2017-05-12T14:09:48.445Z,998.88
2017-05-12T14:10:58.988Z,998.92
2017-05-12T14:12:09.274Z,998.85
2017-05-12T14:13:19.566Z,998.81
2017-05-12T14:14:29.230Z,998.76
2017-05-12T14:15:39.202Z,998.77
2017-05-12T14:16:49.124Z,998.76
2017-05-12T14:17:59.420Z,998.77
2017-05-12T14:19:09.733Z,998.74
2017-05-12T14:20:20.018Z,998.79
2017-05-12T14:21:30.324Z,998.77
2017-05-12T14:22:40.869Z,998.77
2017-05-12T14:23:50.852Z,998.78
2017-05-12T14:25:01.140Z,998.77
2017-05-12T14:26:11.432Z,998.8
2017-05-12T14:27:21.733Z,998.75
2017-05-12T14:28:32.269Z,998.75
2017-05-12T14:29:42.559Z,998.73
2017-05-12T14:30:52.857Z,998.71
2017-05-12T14:32:03.155Z,998.73
2017-05-12T14:33:13.457Z,998.74
2017-05-12T14:34:23.989Z,998.79
2017-05-12T14:35:33.963Z,998.72